June 27, 2022

Time Code Weather Temp. Visibility Ceiling Wind METAR/SPECI
3:30 am
V
61 °F 6¼ mi+ - 330° 330° 13 kt METAR LPFR 270230Z 33013KT CAVOK 16/07 Q1016
3:00 am
V
63 °F 6¼ mi+ - 330° 330° 17 kt METAR LPFR 270200Z 33017KT CAVOK 17/07 Q1016
2:30 am
V
63 °F 6¼ mi+ - 330° 330° 18 kt METAR LPFR 270130Z 33018KT CAVOK 17/07 Q1016
2:00 am
V
63 °F 6¼ mi+ - 330° 330° 17 kt METAR LPFR 270100Z 33017KT CAVOK 17/07 Q1016
1:30 am
V
64 °F 6¼ mi+ - 320° 320° 17 kt METAR LPFR 270030Z 32017KT CAVOK 18/07 Q1016
1:00 am
V
64 °F 6¼ mi+ - 320° 320° 15 - 27 kt METAR LPFR 270000Z 32015G27KT CAVOK 18/08 Q1016
12:30 am
V
64 °F 6¼ mi+ - 310° 310° 15 kt METAR LPFR 262330Z 31015KT CAVOK 18/08 Q1016
12:00 am
V
64 °F 6¼ mi+ - 310° 310° 12 kt METAR LPFR 262300Z 31012KT CAVOK 18/09 Q1016

June 26, 2022

Time Code Weather Temp. Visibility Ceiling Wind METAR/SPECI
11:30 pm
V
66 °F 6¼ mi+ - 310° 310° 13 kt METAR LPFR 262230Z 31013KT CAVOK 19/09 Q1016
11:00 pm
V
66 °F 6¼ mi+ - 310° 310° 14 kt METAR LPFR 262200Z 31014KT CAVOK 19/09 Q1016
10:30 pm
V
68 °F 6¼ mi+ - 310° 310° 13 kt METAR LPFR 262130Z 31013KT CAVOK 20/08 Q1015
10:00 pm
V
68 °F 6¼ mi+ - 300° 300° 13 kt METAR LPFR 262100Z 30013KT CAVOK 20/08 Q1015
9:30 pm
V
68 °F 6¼ mi+ - 300° 300° 16 kt METAR LPFR 262030Z 30016KT CAVOK 20/08 Q1014
9:00 pm
V
70 °F 6¼ mi+ - 300° 300° 16 kt METAR LPFR 262000Z 30016KT CAVOK 21/08 Q1014
8:30 pm
V
72 °F 6¼ mi+ - 300° 300° 18 kt METAR LPFR 261930Z 30018KT CAVOK 22/09 Q1014
8:00 pm
V
72 °F 6¼ mi+ - 300° 300° 17 kt METAR LPFR 261900Z 30017KT CAVOK 22/09 Q1013
7:30 pm
V
73 °F 6¼ mi+ - 290° 290° 20 kt METAR LPFR 261830Z 29020KT CAVOK 23/09 Q1013
7:00 pm
V
75 °F 6¼ mi+ - 290° 290° 21 kt METAR LPFR 261800Z 29021KT CAVOK 24/09 Q1013
6:30 pm
V
75 °F 6¼ mi+ - 290° 290° 20 kt METAR LPFR 261730Z 29020KT CAVOK 24/08 Q1013
6:00 pm
V
77 °F 6¼ mi+ - 290° 290° 22 kt METAR LPFR 261700Z 29022KT CAVOK 25/08 Q1013
5:30 pm
V
79 °F 6¼ mi+ - 280° 280° 21 kt METAR LPFR 261630Z 28021KT CAVOK 26/08 Q1013
5:00 pm
V
81 °F 6¼ mi+ - 290° 290° 19 kt METAR LPFR 261600Z 29019KT CAVOK 27/08 Q1012
4:30 pm
V
77 °F 6¼ mi+ - 270° 270° 20 kt METAR LPFR 261530Z 27020KT 240V300 CAVOK 25/10 Q1012 WS ALL RWY
4:00 pm
V
81 °F 6¼ mi+ - 280° 280° 12 kt METAR LPFR 261500Z 28012KT 250V310 CAVOK 27/08 Q1012
3:30 pm
V
75 °F 6¼ mi+ - 250° 250° 9 kt METAR LPFR 261430Z 25009KT 160V290 CAVOK 24/12 Q1013
3:00 pm
V
73 °F 6¼ mi+ - 240° 240° 14 kt METAR LPFR 261400Z 24014KT CAVOK 23/12 Q1013
2:30 pm
V
70 °F 6¼ mi+ - 230° 230° 14 kt METAR LPFR 261330Z 23014KT CAVOK 21/14 Q1014
2:00 pm
V
72 °F 6¼ mi+ - 230° 230° 14 kt METAR LPFR 261300Z 23014KT CAVOK 22/12 Q1014
1:30 pm
V
70 °F 6¼ mi+ - 230° 230° 16 kt METAR LPFR 261230Z 23016KT CAVOK 21/12 Q1014
1:00 pm
V
75 °F 6¼ mi+ - 300° 300° 10 kt METAR LPFR 261200Z 30010KT 260V350 CAVOK 24/06 Q1014
12:30 pm
V
75 °F 6¼ mi+ - 310° 310° 13 kt METAR LPFR 261130Z 31013KT 260V350 CAVOK 24/06 Q1015
12:00 pm
V
73 °F 6¼ mi+ - 330° 330° 12 kt METAR LPFR 261100Z 33012KT 290V360 CAVOK 23/06 Q1015
11:30 am
V
72 °F 6¼ mi+ - 350° 350° 13 kt METAR LPFR 261030Z 35013KT 300V050 CAVOK 22/06 Q1015
11:00 am
V
72 °F 6¼ mi+ - 340° 340° 14 kt METAR LPFR 261000Z 34014KT 300V010 CAVOK 22/06 Q1015
10:30 am
V
72 °F 6¼ mi+ - 340° 340° 13 kt METAR LPFR 260930Z 34013KT 310V010 CAVOK 22/06 Q1015
10:00 am
V
68 °F 6¼ mi+ - 320° 320° 14 kt METAR LPFR 260900Z 32014KT CAVOK 20/07 Q1015
9:30 am
V
68 °F 6¼ mi+ - 330° 330° 13 kt METAR LPFR 260830Z 33013KT CAVOK 20/07 Q1015
9:00 am
V
66 °F 6¼ mi+ - 330° 330° 10 kt METAR LPFR 260800Z 33010KT 300V360 CAVOK 19/08 Q1015
8:30 am
V
64 °F 6¼ mi+ - 330° 330° 13 kt METAR LPFR 260730Z 33013KT CAVOK 18/09 Q1015
8:00 am
V
63 °F 6¼ mi+ - 320° 320° 10 kt METAR LPFR 260700Z 32010KT CAVOK 17/09 Q1014
7:30 am
V
61 °F 6¼ mi+ - 320° 320° 12 kt METAR LPFR 260630Z 32012KT CAVOK 16/10 Q1014
7:00 am
V
61 °F 6¼ mi+ - 310° 310° 9 kt METAR LPFR 260600Z 31009KT CAVOK 16/09 Q1014
6:30 am
V
61 °F 6¼ mi+ - 300° 300° 8 kt METAR LPFR 260530Z 30008KT CAVOK 16/09 Q1014
6:00 am
V
61 °F 6¼ mi+ - 300° 300° 7 kt METAR LPFR 260500Z 30007KT 270V350 CAVOK 16/09 Q1014
5:30 am
V
61 °F 6¼ mi+ - 330° 330° 11 kt METAR LPFR 260430Z 33011KT CAVOK 16/08 Q1013
5:00 am
V
63 °F 6¼ mi+ - 340° 340° 12 kt METAR LPFR 260400Z 34012KT CAVOK 17/06 Q1013
4:30 am
V
63 °F 6¼ mi+ - 350° 350° 12 kt METAR LPFR 260330Z 35012KT CAVOK 17/05 Q1013
4:00 am
V
63 °F 6¼ mi+ - 350° 350° 11 kt METAR LPFR 260300Z 35011KT CAVOK 17/05 Q1013
3:30 am
V
63 °F 6¼ mi+ - 350° 350° 10 kt METAR LPFR 260230Z 35010KT CAVOK 17/07 Q1013
3:00 am
V
64 °F 6¼ mi+ - 340° 340° 11 kt METAR LPFR 260200Z 34011KT CAVOK 18/08 Q1013
2:30 am
V
64 °F 6¼ mi+ - 350° 350° 11 kt METAR LPFR 260130Z 35011KT CAVOK 18/08 Q1013
2:00 am
V
64 °F 6¼ mi+ - 350° 350° 11 kt METAR LPFR 260100Z 35011KT CAVOK 18/08 Q1013
1:30 am
V
66 °F 6¼ mi+ - 330° 330° 9 kt METAR LPFR 260030Z 33009KT 300V360 CAVOK 19/09 Q1013
1:00 am
V
66 °F 6¼ mi+ - 340° 340° 11 kt METAR LPFR 260000Z 34011KT CAVOK 19/08 Q1013
12:30 am
V
68 °F 6¼ mi+ - 340° 340° 9 kt METAR LPFR 252330Z 34009KT CAVOK 20/09 Q1013
12:00 am
V
66 °F 6¼ mi+ - 310° 310° 11 kt METAR LPFR 252300Z 31011KT CAVOK 19/10 Q1013

June 25, 2022

Time Code Weather Temp. Visibility Ceiling Wind METAR/SPECI
11:30 pm
V
68 °F 6¼ mi+ - 310° 310° 12 kt METAR LPFR 252230Z 31012KT CAVOK 20/10 Q1013
11:00 pm
V
68 °F 6¼ mi+ - 310° 310° 13 kt METAR LPFR 252200Z 31013KT CAVOK 20/10 Q1013
10:30 pm
V
70 °F 6¼ mi+ - 310° 310° 14 kt METAR LPFR 252130Z 31014KT CAVOK 21/09 Q1013
10:00 pm
V
72 °F 6¼ mi+ - 310° 310° 14 kt METAR LPFR 252100Z 31014KT CAVOK 22/09 Q1013
9:30 pm
V
72 °F 6¼ mi+ - 310° 310° 12 kt METAR LPFR 252030Z 31012KT CAVOK 22/09 Q1013
9:00 pm
V
73 °F 6¼ mi+ - 300° 300° 12 kt METAR LPFR 252000Z 30012KT CAVOK 23/09 Q1013
8:30 pm
V
75 °F 6¼ mi+ - 300° 300° 16 kt METAR LPFR 251930Z 30016KT CAVOK 24/09 Q1012
8:00 pm
V
77 °F 6¼ mi+ - 290° 290° 16 kt METAR LPFR 251900Z 29016KT CAVOK 25/10 Q1012
7:30 pm
V
77 °F 6¼ mi+ - 300° 300° 18 kt METAR LPFR 251830Z 30018KT 9999 FEW048 25/10 Q1012
7:00 pm
V
79 °F 6¼ mi+ - 300° 300° 18 kt METAR LPFR 251800Z 30018KT 9999 FEW040 26/11 Q1012
6:30 pm
V
81 °F 6¼ mi+ - 290° 290° 19 kt METAR LPFR 251730Z 29019KT 9999 FEW040 27/11 Q1011
6:00 pm
V
82 °F 6¼ mi+ - 270° 270° 16 kt METAR LPFR 251700Z 27016KT 240V320 9999 FEW038 28/12 Q1011
5:30 pm
V
75 °F 6¼ mi+ - 250° 250° 17 kt METAR LPFR 251630Z 25017KT 9999 FEW035 24/15 Q1012
5:00 pm
V
75 °F 6¼ mi+ - 240° 240° 13 kt METAR LPFR 251600Z 24013KT 9999 FEW035 24/16 Q1012
4:30 pm
V
72 °F 6¼ mi+ - 240° 240° 14 kt METAR LPFR 251530Z 24014KT 9999 FEW035 22/16 Q1012
4:00 pm
V
72 °F 6¼ mi+ - 230° 230° 12 kt METAR LPFR 251500Z 23012KT 9999 FEW035 22/17 Q1013
3:30 pm
V
72 °F 6¼ mi+ - 230° 230° 13 kt METAR LPFR 251430Z 23013KT 9999 FEW035 22/17 Q1013
3:00 pm
V
70 °F 6¼ mi+ - 230° 230° 11 kt METAR LPFR 251400Z 23011KT 9999 FEW035 21/17 Q1014
2:30 pm
V
72 °F 6¼ mi+ - 210° 210° 10 kt METAR LPFR 251330Z 21010KT 9999 FEW035 22/17 Q1014
2:00 pm
V
70 °F 6¼ mi+ - 210° 210° 11 kt METAR LPFR 251300Z 21011KT 9999 FEW035 21/17 Q1014
1:30 pm
V
70 °F 6¼ mi+ - 210° 210° 12 kt METAR LPFR 251230Z 21012KT 9999 FEW035 21/17 Q1015
1:00 pm
V
72 °F 6¼ mi+ - 210° 210° 11 kt METAR LPFR 251200Z 21011KT 9999 FEW035 22/17 Q1015
12:30 pm
V
70 °F 6¼ mi+ - 230° 230° 14 kt METAR LPFR 251130Z 23014KT 9999 FEW035 21/16 Q1015
12:00 pm
V
70 °F 6¼ mi+ - 230° 230° 15 kt METAR LPFR 251100Z 23015KT 9999 FEW035 21/15 Q1015
11:30 am
V
70 °F 6¼ mi+ - 240° 240° 15 kt METAR LPFR 251030Z 24015KT 9999 FEW035 21/16 Q1015
11:00 am
V
70 °F 6¼ mi+ - 230° 230° 12 kt METAR LPFR 251000Z 23012KT 190V260 9999 FEW030 21/16 Q1015
10:30 am
V
72 °F 6¼ mi+ - 210° 210° 9 kt METAR LPFR 250930Z 21009KT 9999 FEW030 22/15 Q1015
10:00 am
V
68 °F 6¼ mi+ - 240° 240° 10 kt METAR LPFR 250900Z 24010KT 9999 FEW030 20/14 Q1015
9:30 am
V
72 °F 6¼ mi+ - 350° 350° 7 kt METAR LPFR 250830Z 35007KT 290V020 9999 FEW030 22/14 Q1016
9:00 am
V
68 °F 6¼ mi+ - 320° 320° 8 kt METAR LPFR 250800Z 32008KT 9999 FEW030 20/14 Q1015
8:30 am
V
66 °F 6¼ mi+ - 330° 330° 8 kt METAR LPFR 250730Z 33008KT 300V360 CAVOK 19/14 Q1015
8:00 am
V
66 °F 6¼ mi+ - 320° 320° 6 kt METAR LPFR 250700Z 32006KT CAVOK 19/14 Q1015
7:30 am
V
64 °F 6¼ mi+ - 300° 300° 8 kt METAR LPFR 250630Z 30008KT CAVOK 18/14 Q1015
7:00 am
V
63 °F 6¼ mi+ - 280° 280° 5 kt METAR LPFR 250600Z 28005KT CAVOK 17/14 Q1015
6:30 am
V
63 °F 6¼ mi+ - 290° 290° 6 kt METAR LPFR 250530Z 29006KT CAVOK 17/13 Q1015
6:00 am
V
61 °F 6¼ mi+ - 300° 300° 3 kt METAR LPFR 250500Z 30003KT CAVOK 16/13 Q1015
5:30 am
V
61 °F 6¼ mi+ - 300° 300° 3 kt METAR LPFR 250430Z 30003KT 260V320 CAVOK 16/13 Q1015
5:00 am
V
63 °F 6¼ mi+ - 300° 300° 4 kt METAR LPFR 250400Z 30004KT CAVOK 17/13 Q1015
4:30 am
V
63 °F 6¼ mi+ - 300° 300° 6 kt METAR LPFR 250330Z 30006KT CAVOK 17/13 Q1015
4:00 am
V
63 °F 6¼ mi+ - 290° 290° 8 kt METAR LPFR 250300Z 29008KT CAVOK 17/13 Q1015
3:30 am
V
63 °F 6¼ mi+ - 300° 300° 7 kt METAR LPFR 250230Z 30007KT CAVOK 17/13 Q1015
3:00 am
V
64 °F 6¼ mi+ - 290° 290° 7 kt METAR LPFR 250200Z 29007KT CAVOK 18/12 Q1015
2:30 am
V
64 °F 6¼ mi+ - 310° 310° 6 kt METAR LPFR 250130Z 31006KT CAVOK 18/12 Q1015
2:00 am
V
64 °F 6¼ mi+ - 300° 300° 7 kt METAR LPFR 250100Z 30007KT CAVOK 18/13 Q1016
1:30 am
V
64 °F 6¼ mi+ - 320° 320° 9 kt METAR LPFR 250030Z 32009KT CAVOK 18/13 Q1016
1:00 am
V
64 °F 6¼ mi+ - 310° 310° 9 kt METAR LPFR 250000Z 31009KT CAVOK 18/12 Q1016
12:30 am
V
66 °F 6¼ mi+ - 310° 310° 10 kt METAR LPFR 242330Z 31010KT CAVOK 19/13 Q1016
12:00 am
V
66 °F 6¼ mi+ - 310° 310° 11 kt METAR LPFR 242300Z 31011KT CAVOK 19/13 Q1016

June 24, 2022

Time Code Weather Temp. Visibility Ceiling Wind METAR/SPECI
11:30 pm
V
66 °F 6¼ mi+ - 320° 320° 11 kt METAR LPFR 242230Z 32011KT CAVOK 19/13 Q1016
11:00 pm
V
68 °F 6¼ mi+ - 310° 310° 12 kt METAR LPFR 242200Z 31012KT CAVOK 20/13 Q1017
10:30 pm
V
70 °F 6¼ mi+ - 310° 310° 12 kt METAR LPFR 242130Z 31012KT CAVOK 21/13 Q1016
10:00 pm
V
70 °F 6¼ mi+ - 310° 310° 12 kt METAR LPFR 242100Z 31012KT CAVOK 21/13 Q1016
9:30 pm
V
72 °F 6¼ mi+ - 300° 300° 10 kt METAR LPFR 242030Z 30010KT CAVOK 22/13 Q1016
9:00 pm
V
73 °F 6¼ mi+ - 300° 300° 13 kt METAR LPFR 242000Z 30013KT CAVOK 23/13 Q1016
8:30 pm
V
70 °F 6¼ mi+ - 270° 270° 15 kt METAR LPFR 241930Z 27015KT CAVOK 21/15 Q1016
Older data

Download our app

Easy access to all aviation weather on your mobile phone and tablet.
With many features not available on the website, like offline support and a personal airport list.

We and third parties follow your internet behavior on our website with cookies. If you continue, we assume you agree with our cookie policy. Learn more